Current Weather

Senou

Senou, Mali (GABS)

Report from: Monday, May 23, 2022 8:00 AM GMT
Current time: Monday, May 23, 2022 8:23 AM GMT

Nearby weather
Weather history
Weather forecast

Temperature27.0°C (80.6°F)
Heat index29.0°C (84.2°F)
Dew point21.0°C (69.8°F)
Winds 5 kts (2.6 m/s, 5.8 mph) Vrb
Winds variableWinds variable from South (170°) to West-Southwest (240°)
Visibility6.2 mi. (10 km)
Clouds Few clouds 3,000 ft. (914 m)
Altimeter29.94 in.Hg (1014 mB)
Relative humidity70 %
Density altitude1,694 ft. (516 m)
Remarks No significant changes expected in the next two hours
Flight conditions Visual Meteorological Conditions
Raw dataGABS 230800Z 21005KT 170V240 9999 FEW030 27/21 Q1014 NOSIG
An error has occurred. This application may no longer respond until reloaded. Reload 🗙